Mukdahan, Thailand

7:01 PM ICT on August 26, 2016 (GMT +0700)
Nakhon Phanom | | Change Station

Elev 584 ft 17.38 °N, 104.64 °E | Updated 1 hour ago

Scattered Clouds
Scattered Clouds
81 °F
Feels Like 87 °F
N
5
Wind Variable Wind from West

Today
High -- | Low -- °F
--% Chance of Precip.
Yesterday
High -- | Low -- °F
Precip. -- in
Pressure 29.68 in
Visibility 6.2 miles
Clouds Few 2000 ft
Scattered Clouds 2500 ft
Heat Index 87 °F
Dew Point 77 °F
Humidity 89%
Rainfall 0.00 in
Snow Depth Not available.
5:47 AM 6:18 PM
Waning Crescent, 35% visible
METAR VTUW 261100Z 27004KT 220V300 9999 FEW020 SCT025 27/25 Q1005
Pressure 29.68 in
Visibility 6.2 miles
Clouds Few 2000 ft
Scattered Clouds 2500 ft
Heat Index 87 °F
Dew Point 77 °F
Humidity 89%
Rainfall 0.00 in
Snow Depth Not available.
5:47 AM 6:18 PM
Waning Crescent, 35% visible
METAR VTUW 261100Z 27004KT 220V300 9999 FEW020 SCT025 27/25 Q1005

10-Day Weather Forecast

No radar image for this location.
×

Almanac

Astronomy

Aug. 26, 2016 Rise Set
Actual Time
Civil Twilight
Nautical Twilight
Astronomical Twilight
Moon
Length of Visible Light
Length of Day
Tomorrow will be .
, % of the Moon is Illuminated

Today's Extremes

Country Highs Country Lows

Community

WunderPhotos

Upload Photos

1,935,077 photos uploaded!

WunderBlog® & News

Nearby

Air Quality

  Air Quality AQ Index Pollutant
Not available.

Snow Depth

Station Depth Elevation

Earthquake Activity

City Distance Mag. Time & Date
Minimum magnitude displayed is 2.5.

Coastal Water Temperatures

Place Temperature

Stations

Nearby Weather Stations

Station Location Temp. Windchill Dew Point Humidity Wind Precip. Elev Updated Type